Time;durP1;ratioP1;P1;durP2;ratioP2;P2;SDS_P1;SDS_P2;PMS_P1;PMS_P2;Temp;Humidity;BMP_temperature;BMP_pressure;BME280_temperature;BME280_humidity;BME280_pressure;Samples;Min_cycle;Max_cycle;Signal;HPM_P1;HPM_P2
2021/09/10 00:00:21;;;;;;;13.60;12.40;;;17.80;99.90;;;;;;4975216;28;20238;-79
2021/09/10 00:02:49;;;;;;;12.77;11.57;;;17.80;99.90;;;;;;4969622;28;20244;-78
2021/09/10 00:05:16;;;;;;;12.70;11.60;;;17.90;99.90;;;;;;4992573;28;20204;-77
2021/09/10 00:07:42;;;;;;;11.53;10.63;;;17.90;99.90;;;;;;4960093;28;20288;-78
2021/09/10 00:10:10;;;;;;;12.03;11.00;;;18.00;99.90;;;;;;4970976;28;20196;-79
2021/09/10 00:12:37;;;;;;;11.70;10.80;;;18.00;99.90;;;;;;4971758;28;20243;-78
2021/09/10 00:15:05;;;;;;;12.50;11.40;;;18.00;99.90;;;;;;4968500;28;20200;-78
2021/09/10 00:17:31;;;;;;;12.53;11.53;;;17.90;99.90;;;;;;4954411;28;20352;-79
2021/09/10 00:20:00;;;;;;;11.90;10.80;;;17.80;99.90;;;;;;4966196;28;20202;-79
2021/09/10 00:22:26;;;;;;;11.03;10.13;;;17.80;99.90;;;;;;4972483;28;20696;-78
2021/09/10 00:24:53;;;;;;;12.37;11.17;;;17.70;99.90;;;;;;4969455;28;20206;-78
2021/09/10 00:27:20;;;;;;;12.13;11.17;;;17.70;99.90;;;;;;4964580;28;20225;-78
2021/09/10 00:29:48;;;;;;;12.37;11.37;;;17.60;99.90;;;;;;4969440;28;20198;-79
2021/09/10 00:32:15;;;;;;;11.17;10.23;;;17.60;99.90;;;;;;4944109;29;20275;-78
2021/09/10 00:34:42;;;;;;;11.77;10.87;;;17.50;99.90;;;;;;4969240;28;20201;-78
2021/09/10 00:37:10;;;;;;;13.93;12.73;;;17.50;99.90;;;;;;4950111;28;20224;-78
2021/09/10 00:39:37;;;;;;;11.50;10.40;;;17.40;99.90;;;;;;4972102;28;20194;-78
2021/09/10 00:42:04;;;;;;;11.47;10.27;;;17.40;99.90;;;;;;4951537;28;20236;-78
2021/09/10 00:44:30;;;;;;;12.90;11.70;;;17.40;99.90;;;;;;4954196;28;20237;-78
2021/09/10 00:46:57;;;;;;;10.93;10.03;;;17.30;99.90;;;;;;4950858;28;20228;-78
2021/09/10 00:49:24;;;;;;;10.47;9.47;;;17.30;99.90;;;;;;4970368;28;20728;-78
2021/09/10 00:51:52;;;;;;;10.63;9.60;;;17.30;99.90;;;;;;4961876;28;20213;-78
2021/09/10 00:54:20;;;;;;;11.50;10.40;;;17.20;99.90;;;;;;4968491;28;20216;-78
2021/09/10 00:56:47;;;;;;;10.33;9.33;;;17.20;99.90;;;;;;4954676;28;20234;-78
2021/09/10 00:59:14;;;;;;;13.43;12.23;;;17.20;99.90;;;;;;4971481;28;20206;-78
2021/09/10 01:01:41;;;;;;;13.50;12.40;;;17.20;99.90;;;;;;4950920;28;20269;-78
2021/09/10 01:04:09;;;;;;;13.30;12.13;;;17.20;99.90;;;;;;4970368;28;20631;-78
2021/09/10 01:06:36;;;;;;;12.13;11.03;;;17.30;99.90;;;;;;4972825;28;20298;-77
2021/09/10 01:09:03;;;;;;;11.20;10.20;;;17.30;99.90;;;;;;4970148;28;20208;-76
2021/09/10 01:11:32;;;;;;;11.40;10.47;;;17.30;99.90;;;;;;4967980;28;20197;-79
2021/09/10 01:14:00;;;;;;;11.30;10.40;;;17.30;99.90;;;;;;4967977;28;20196;-78
2021/09/10 01:16:27;;;;;;;13.70;12.60;;;17.20;99.90;;;;;;4969575;28;20208;-78
2021/09/10 01:18:54;;;;;;;13.23;12.13;;;17.20;99.90;;;;;;4950426;28;20296;-78
2021/09/10 01:21:20;;;;;;;13.57;12.47;;;17.10;99.90;;;;;;4959043;28;20213;-78
2021/09/10 01:23:47;;;;;;;13.90;12.70;;;17.10;99.90;;;;;;4975460;28;20273;-78
2021/09/10 01:26:15;;;;;;;14.63;13.43;;;17.00;99.90;;;;;;4953924;28;20629;-78
2021/09/10 01:28:42;;;;;;;12.80;11.70;;;16.90;99.90;;;;;;4956068;28;20212;-78
2021/09/10 01:31:09;;;;;;;14.53;13.23;;;16.90;99.90;;;;;;4970517;28;20623;-78
2021/09/10 01:33:36;;;;;;;15.10;13.90;;;16.80;99.90;;;;;;4955940;28;20264;-78
2021/09/10 01:36:03;;;;;;;13.93;12.70;;;16.80;99.90;;;;;;4957129;28;20261;-78
2021/09/10 01:38:29;;;;;;;14.80;13.50;;;16.70;99.90;;;;;;4971632;28;20227;-79
2021/09/10 01:40:56;;;;;;;14.27;13.17;;;16.70;99.90;;;;;;4968462;28;20202;-78
2021/09/10 01:43:24;;;;;;;14.20;13.03;;;16.70;99.90;;;;;;4967375;28;20745;-79
2021/09/10 01:45:51;;;;;;;14.43;13.17;;;16.70;99.90;;;;;;4965220;28;20226;-79
2021/09/10 01:48:18;;;;;;;11.57;10.47;;;16.70;99.90;;;;;;4973885;28;20270;-78
2021/09/10 01:50:45;;;;;;;8.63;7.73;;;16.70;99.90;;;;;;4954441;28;20212;-78
2021/09/10 01:53:12;;;;;;;8.80;7.90;;;16.70;99.90;;;;;;4945459;28;20553;-78
2021/09/10 01:55:39;;;;;;;9.20;8.13;;;16.60;99.90;;;;;;4969991;28;20744;-78
2021/09/10 01:58:06;;;;;;;8.80;7.90;;;16.60;99.90;;;;;;4951771;28;20230;-78
2021/09/10 02:00:34;;;;;;;8.97;7.90;;;16.60;99.90;;;;;;4967208;28;20193;-78
2021/09/10 02:03:01;;;;;;;8.67;7.77;;;16.50;99.90;;;;;;4949700;28;20216;-78
2021/09/10 02:05:28;;;;;;;9.27;8.37;;;16.50;99.90;;;;;;4949603;28;20289;-78
2021/09/10 02:07:55;;;;;;;7.87;7.07;;;16.50;99.90;;;;;;4970948;28;20228;-78
2021/09/10 02:10:21;;;;;;;8.60;7.70;;;16.50;99.90;;;;;;4945991;28;20257;-78
2021/09/10 02:12:48;;;;;;;8.50;7.70;;;16.40;99.90;;;;;;4953738;28;20227;-78
2021/09/10 02:15:15;;;;;;;11.30;10.30;;;16.40;99.90;;;;;;4971326;28;20632;-76
2021/09/10 02:17:43;;;;;;;13.40;12.30;;;16.40;99.90;;;;;;4966570;28;20757;-79
2021/09/10 02:20:11;;;;;;;14.43;13.20;;;16.30;99.90;;;;;;4966489;28;20210;-79
2021/09/10 02:22:38;;;;;;;15.10;13.73;;;16.20;99.90;;;;;;4968433;28;20293;-78
2021/09/10 02:25:06;;;;;;;13.77;12.57;;;16.10;99.90;;;;;;4949590;28;20245;-78
2021/09/10 02:27:33;;;;;;;12.73;11.63;;;16.10;99.90;;;;;;4973815;28;20715;-78
2021/09/10 02:29:59;;;;;;;12.57;11.47;;;16.00;99.90;;;;;;4967260;28;20259;-78
2021/09/10 02:32:26;;;;;;;14.23;13.00;;;16.00;99.90;;;;;;4953979;28;20218;-77
2021/09/10 02:34:54;;;;;;;12.80;11.70;;;16.00;99.90;;;;;;4966974;28;20606;-78
2021/09/10 02:37:21;;;;;;;14.30;13.00;;;15.90;99.90;;;;;;4949625;28;20227;-78
2021/09/10 02:39:48;;;;;;;15.37;14.07;;;15.90;99.90;;;;;;4970818;28;20249;-78
2021/09/10 02:42:15;;;;;;;14.30;13.20;;;15.90;99.90;;;;;;4969329;28;20282;-77
2021/09/10 02:44:42;;;;;;;12.73;11.63;;;15.90;99.90;;;;;;4958904;28;20336;-78
2021/09/10 02:47:08;;;;;;;13.83;12.73;;;15.90;99.90;;;;;;4975874;28;20225;-79
2021/09/10 02:49:35;;;;;;;13.73;12.53;;;16.00;99.90;;;;;;4950115;28;20208;-77
2021/09/10 02:52:04;;;;;;;13.87;12.77;;;16.00;99.90;;;;;;4969307;28;20202;-79
2021/09/10 02:54:31;;;;;;;14.03;12.90;;;16.10;99.90;;;;;;4956492;28;20257;-80
2021/09/10 02:56:59;;;;;;;13.50;12.40;;;16.10;99.90;;;;;;4952987;28;20225;-80
2021/09/10 02:59:26;;;;;;;12.67;11.67;;;16.20;99.90;;;;;;4973611;28;20202;-80
2021/09/10 03:01:54;;;;;;;13.33;12.20;;;16.20;99.90;;;;;;4966106;28;20284;-80
2021/09/10 03:04:21;;;;;;;13.37;12.27;;;16.30;99.90;;;;;;4969942;28;20580;-80
2021/09/10 03:06:49;;;;;;;8.37;7.53;;;16.30;99.90;;;;;;4949292;28;20210;-80
2021/09/10 03:09:17;;;;;;;8.80;6.97;;;16.30;99.90;;;;;;4968269;28;20264;-79
2021/09/10 03:11:44;;;;;;;9.50;8.70;;;16.30;99.90;;;;;;4971023;28;20257;-79
2021/09/10 03:14:11;;;;;;;13.10;12.10;;;16.40;99.90;;;;;;4956265;28;20203;-80
2021/09/10 03:16:38;;;;;;;12.83;11.83;;;16.40;99.90;;;;;;4973384;28;20344;-80
2021/09/10 03:19:05;;;;;;;11.30;10.30;;;16.40;99.90;;;;;;4971036;28;20733;-79
2021/09/10 03:21:32;;;;;;;9.00;8.20;;;16.40;99.90;;;;;;4947752;28;20204;-82
2021/09/10 03:23:59;;;;;;;10.07;9.17;;;16.40;99.90;;;;;;4956142;28;20310;-80
2021/09/10 03:26:27;;;;;;;10.73;9.83;;;16.40;99.90;;;;;;4954745;28;20208;-80
2021/09/10 03:28:54;;;;;;;10.53;9.53;;;16.40;99.90;;;;;;4947539;29;20273;-81
2021/09/10 03:31:21;;;;;;;9.93;9.03;;;16.30;99.90;;;;;;4952300;28;20209;-80
2021/09/10 03:33:47;;;;;;;12.10;9.50;;;16.30;99.90;;;;;;4970243;28;20248;-79
2021/09/10 03:36:14;;;;;;;9.90;9.00;;;16.30;99.90;;;;;;4965769;28;20545;-82
2021/09/10 03:38:43;;;;;;;10.67;9.40;;;16.20;99.90;;;;;;4954974;28;20204;-80
2021/09/10 03:41:10;;;;;;;10.20;9.20;;;16.20;99.90;;;;;;4966702;28;20216;-80
2021/09/10 03:43:38;;;;;;;11.60;10.50;;;16.10;99.90;;;;;;4952349;28;20221;-79
2021/09/10 03:46:05;;;;;;;11.43;10.40;;;16.10;99.90;;;;;;4948589;29;20208;-80
2021/09/10 03:48:32;;;;;;;11.77;10.63;;;16.00;99.90;;;;;;4969936;28;20228;-78
2021/09/10 03:50:59;;;;;;;11.57;10.37;;;16.00;99.90;;;;;;4949435;28;20264;-81
2021/09/10 03:53:26;;;;;;;11.70;10.50;;;15.90;99.90;;;;;;4947798;28;20674;-80
2021/09/10 03:55:52;;;;;;;13.43;12.23;;;15.90;99.90;;;;;;4947996;28;20208;-80
2021/09/10 03:58:19;;;;;;;12.23;10.37;;;15.90;99.90;;;;;;4948278;28;20242;-81
2021/09/10 04:00:48;;;;;;;11.93;10.83;;;15.80;99.90;;;;;;4972545;28;20564;-80
2021/09/10 04:03:20;;;;;;;14.60;12.03;;;15.70;99.90;;;;;;4963426;28;20230;-81
2021/09/10 04:05:56;;;;;;;13.20;11.90;;;15.70;99.90;;;;;;4973197;28;20633;-81
2021/09/10 04:08:23;;;;;;;14.30;11.53;;;15.60;99.90;;;;;;4972851;28;20263;-81
2021/09/10 04:10:51;;;;;;;15.13;13.67;;;15.60;99.90;;;;;;4955872;28;20213;-81
2021/09/10 04:13:18;;;;;;;15.00;13.80;;;15.60;99.90;;;;;;4949817;29;20202;-80
2021/09/10 04:15:46;;;;;;;12.97;11.77;;;15.60;99.90;;;;;;4952215;28;20211;-81
2021/09/10 04:18:17;;;;;;;14.40;12.73;;;15.50;99.90;;;;;;4950829;28;20228;-80
2021/09/10 04:20:46;;;;;;;17.53;16.07;;;15.50;99.90;;;;;;4948122;28;20228;-80
2021/09/10 04:23:13;;;;;;;17.60;16.13;;;15.40;99.90;;;;;;4955144;28;20708;-81
2021/09/10 04:25:40;;;;;;;16.30;15.00;;;15.40;99.90;;;;;;4947546;28;20198;-80
2021/09/10 04:28:07;;;;;;;16.30;15.00;;;15.30;99.90;;;;;;4954609;28;20224;-80
2021/09/10 04:30:34;;;;;;;13.77;12.47;;;15.30;99.90;;;;;;4953874;28;20236;-80
2021/09/10 04:33:01;;;;;;;13.60;12.20;;;15.20;99.90;;;;;;4967330;28;20244;-82
2021/09/10 04:35:29;;;;;;;13.00;11.80;;;15.20;99.90;;;;;;4951947;28;20194;-82
2021/09/10 04:37:57;;;;;;;12.87;11.63;;;15.20;99.90;;;;;;4951469;28;20246;-81
2021/09/10 04:40:24;;;;;;;14.10;12.80;;;15.20;99.90;;;;;;4975500;28;20327;-80
2021/09/10 04:42:51;;;;;;;14.47;13.07;;;15.20;99.90;;;;;;4970763;28;20222;-81
2021/09/10 04:45:18;;;;;;;14.10;12.63;;;15.20;99.90;;;;;;4972375;28;20206;-81
2021/09/10 04:47:45;;;;;;;13.83;12.57;;;15.10;99.90;;;;;;4951223;28;20373;-80
2021/09/10 04:50:14;;;;;;;13.10;11.73;;;15.10;99.90;;;;;;4952454;28;20201;-80
2021/09/10 04:52:49;;;;;;;13.80;12.50;;;15.20;99.90;;;;;;4966368;28;20201;-81
2021/09/10 04:55:24;;;;;;;13.13;11.83;;;15.20;99.90;;;;;;4976155;28;20193;-80
2021/09/10 04:57:58;;;;;;;13.23;12.00;;;15.20;99.90;;;;;;4958674;28;20235;-80
2021/09/10 05:00:26;;;;;;;12.80;11.50;;;15.20;99.90;;;;;;4958649;28;20201;-81
2021/09/10 05:03:15;;;;;;;;;;;;;;;;;;;;;
2021/09/10 05:05:53;;;;;;;13.30;12.00;;;15.20;99.90;;;;;;4947524;28;20198;-80
2021/09/10 05:08:28;;;;;;;13.57;12.17;;;15.20;99.90;;;;;;4946959;28;20598;-80
2021/09/10 05:11:09;;;;;;;12.07;10.80;;;15.20;99.90;;;;;;4958157;28;20296;-79
2021/09/10 05:13:46;;;;;;;13.37;12.07;;;15.20;99.90;;;;;;4972655;28;20205;-81
2021/09/10 05:16:28;;;;;;;16.97;14.10;;;15.10;99.90;;;;;;4953902;28;20290;-80
2021/09/10 05:21:53;;;;;;;17.27;15.77;;;15.20;99.90;;;;;;4946279;28;20207;-80
2021/09/10 05:24:37;;;;;;;18.47;15.47;;;15.20;99.90;;;;;;4966578;28;20223;-81
2021/09/10 05:27:07;;;;;;;17.87;16.17;;;15.20;99.90;;;;;;4974368;28;20226;-83
2021/09/10 05:29:34;;;;;;;19.60;16.27;;;15.20;99.90;;;;;;4957138;28;20206;-83
2021/09/10 05:32:01;;;;;;;19.10;17.17;;;15.20;99.90;;;;;;4956733;28;20221;-83
2021/09/10 05:34:28;;;;;;;14.03;12.53;;;15.30;99.90;;;;;;4950522;28;20218;-83
2021/09/10 05:36:54;;;;;;;13.03;11.83;;;15.40;99.90;;;;;;4950538;28;20249;-83
2021/09/10 05:39:22;;;;;;;14.57;13.17;;;15.40;99.90;;;;;;4950586;28;20214;-81
2021/09/10 05:41:50;;;;;;;13.83;12.33;;;15.60;99.90;;;;;;4972497;28;20194;-83
2021/09/10 05:44:18;;;;;;;14.37;12.97;;;15.70;99.90;;;;;;4953564;28;20232;-81
2021/09/10 05:46:44;;;;;;;13.23;11.93;;;15.80;99.90;;;;;;4950258;28;20237;-81
2021/09/10 05:49:11;;;;;;;14.07;12.77;;;15.90;99.90;;;;;;4967269;28;20198;-82
2021/09/10 05:51:38;;;;;;;12.77;11.53;;;16.10;99.90;;;;;;4950105;28;20203;-81
2021/09/10 05:54:05;;;;;;;16.07;14.73;;;16.20;99.90;;;;;;4974760;28;20667;-81
2021/09/10 05:59:10;;;;;;;15.97;14.77;;;16.50;99.90;;;;;;4928037;29;20307;-80
2021/09/10 06:01:37;;;;;;;13.40;12.07;;;16.70;99.90;;;;;;4918791;29;20212;-84
2021/09/10 06:04:04;;;;;;;10.03;9.03;;;16.80;99.90;;;;;;4921996;29;20229;-78
2021/09/10 06:06:31;;;;;;;13.90;12.70;;;16.80;99.90;;;;;;4911893;29;20211;-77
2021/09/10 06:08:58;;;;;;;10.37;8.93;;;17.00;99.90;;;;;;4924420;29;20258;-77
2021/09/10 06:11:24;;;;;;;10.13;8.87;;;17.10;99.90;;;;;;4908404;29;20201;-77
2021/09/10 06:13:51;;;;;;;9.77;8.77;;;17.30;99.90;;;;;;4911804;29;20200;-77
2021/09/10 06:16:19;;;;;;;10.20;9.07;;;17.40;99.90;;;;;;4925416;29;20264;-77
2021/09/10 06:18:46;;;;;;;13.27;12.17;;;17.40;99.90;;;;;;4927578;29;20229;-77
2021/09/10 06:21:13;;;;;;;13.07;12.07;;;17.50;99.90;;;;;;4926141;29;20205;-77
2021/09/10 06:23:41;;;;;;;15.67;14.47;;;17.60;99.90;;;;;;4921521;29;20268;-78
2021/09/10 06:26:08;;;;;;;11.13;10.03;;;17.70;99.90;;;;;;4906433;29;20221;-78
2021/09/10 06:28:35;;;;;;;9.37;8.43;;;17.80;99.90;;;;;;4926252;29;20737;-78
2021/09/10 06:31:02;;;;;;;14.53;13.43;;;17.90;99.90;;;;;;4910063;29;20217;-77
2021/09/10 06:33:30;;;;;;;13.87;12.63;;;18.10;99.90;;;;;;4925692;29;20198;-78
2021/09/10 06:35:57;;;;;;;15.00;13.77;;;18.10;99.90;;;;;;4926424;29;20206;-77
2021/09/10 06:38:23;;;;;;;13.10;12.00;;;18.20;99.90;;;;;;4912290;29;20234;-77
2021/09/10 06:40:50;;;;;;;14.67;13.57;;;18.30;99.90;;;;;;4896849;29;20273;-77
2021/09/10 06:43:17;;;;;;;15.87;14.60;;;18.30;99.90;;;;;;4921826;29;20744;-78
2021/09/10 06:45:45;;;;;;;15.87;14.50;;;18.40;99.90;;;;;;4925285;29;20213;-77
2021/09/10 06:48:12;;;;;;;14.07;13.07;;;18.40;99.90;;;;;;4924644;29;20673;-77
2021/09/10 06:50:40;;;;;;;11.90;10.80;;;18.40;99.90;;;;;;4926759;29;20258;-77
2021/09/10 06:53:08;;;;;;;9.43;8.43;;;18.50;99.90;;;;;;4926204;29;20256;-77
2021/09/10 06:55:35;;;;;;;10.93;9.23;;;18.40;99.90;;;;;;4928037;29;20281;-77
2021/09/10 06:58:02;;;;;;;13.70;12.60;;;18.30;99.90;;;;;;4910624;29;20235;-78
2021/09/10 07:00:29;;;;;;;15.30;14.10;;;18.40;99.90;;;;;;4922021;29;20247;-78
2021/09/10 07:02:56;;;;;;;14.83;13.50;;;18.50;99.90;;;;;;4927507;29;20203;-77
2021/09/10 07:05:22;;;;;;;9.10;8.20;;;18.70;99.90;;;;;;4926073;29;20227;-78
2021/09/10 07:07:52;;;;;;;12.90;11.80;;;18.80;99.90;;;;;;4904338;29;20637;-78
2021/09/10 07:10:19;;;;;;;10.43;8.33;;;19.00;99.90;;;;;;4921608;29;20212;-77
2021/09/10 07:12:46;;;;;;;9.20;8.40;;;19.30;99.90;;;;;;4910909;29;20249;-77
2021/09/10 07:15:12;;;;;;;9.83;8.83;;;19.60;99.90;;;;;;4925559;29;20201;-77
2021/09/10 07:17:39;;;;;;;11.47;10.47;;;20.00;99.90;;;;;;4910597;29;20222;-78
2021/09/10 07:20:07;;;;;;;11.17;10.07;;;20.40;99.90;;;;;;4925659;29;20210;-78
2021/09/10 07:22:34;;;;;;;11.23;10.13;;;20.80;99.90;;;;;;4911354;29;20234;-77
2021/09/10 07:25:02;;;;;;;15.53;14.23;;;21.40;99.90;;;;;;4924845;29;20726;-77
2021/09/10 07:27:29;;;;;;;9.80;8.80;;;21.90;99.90;;;;;;4909574;29;20232;-78
2021/09/10 07:29:56;;;;;;;16.10;14.87;;;22.20;99.90;;;;;;4908807;29;20207;-77
2021/09/10 07:32:22;;;;;;;16.87;15.67;;;22.60;99.90;;;;;;4926760;29;20227;-78
2021/09/10 07:34:49;;;;;;;9.67;8.43;;;23.00;99.90;;;;;;4927414;29;20196;-78
2021/09/10 07:37:16;;;;;;;15.80;14.60;;;23.30;99.90;;;;;;4927192;29;20279;-78
2021/09/10 07:39:43;;;;;;;11.10;10.00;;;23.50;99.90;;;;;;4930897;29;20620;-78
2021/09/10 07:42:11;;;;;;;15.23;14.13;;;23.80;99.90;;;;;;4916670;29;20258;-78
2021/09/10 07:44:38;;;;;;;14.97;13.87;;;24.20;99.90;;;;;;4926060;29;20251;-78
2021/09/10 07:47:04;;;;;;;13.60;12.37;;;24.30;99.90;;;;;;4928192;29;20253;-77
2021/09/10 07:49:31;;;;;;;9.20;7.47;;;24.70;99.90;;;;;;4929209;29;20260;-78
2021/09/10 07:51:58;;;;;;;8.53;7.50;;;25.00;99.90;;;;;;4928970;29;20208;-78
2021/09/10 07:54:25;;;;;;;8.13;7.00;;;25.30;99.90;;;;;;4929690;29;20211;-78
2021/09/10 07:56:52;;;;;;;12.50;11.40;;;25.70;99.90;;;;;;4924504;29;20203;-77
2021/09/10 07:59:20;;;;;;;12.20;11.23;;;26.10;99.90;;;;;;4931588;29;20253;-77
2021/09/10 08:01:46;;;;;;;11.53;10.63;;;26.70;99.90;;;;;;4925783;29;20232;-78
2021/09/10 08:04:14;;;;;;;13.23;12.33;;;27.10;99.90;;;;;;4913021;29;20255;-77
2021/09/10 08:06:41;;;;;;;13.73;12.83;;;26.90;99.90;;;;;;4931336;29;20688;-78
2021/09/10 08:09:07;;;;;;;13.50;12.40;;;26.80;99.90;;;;;;4911026;29;20260;-78
2021/09/10 08:11:34;;;;;;;14.00;12.90;;;26.80;99.90;;;;;;4929232;29;20219;-77
2021/09/10 08:14:03;;;;;;;13.60;12.60;;;26.50;99.90;;;;;;4928723;29;20278;-77
2021/09/10 08:16:31;;;;;;;13.20;12.30;;;26.20;99.90;;;;;;4925998;29;20268;-78
2021/09/10 08:18:58;;;;;;;13.70;12.70;;;26.10;99.90;;;;;;4927613;29;20353;-78
2021/09/10 08:21:25;;;;;;;13.03;12.03;;;26.00;99.90;;;;;;4929408;29;20204;-77
2021/09/10 08:23:52;;;;;;;13.73;12.73;;;25.90;99.90;;;;;;4932161;29;20202;-78
2021/09/10 08:26:19;;;;;;;13.53;12.43;;;25.70;99.90;;;;;;4929410;29;20203;-77
2021/09/10 08:28:45;;;;;;;10.83;10.03;;;25.30;99.90;;;;;;4931579;29;20633;-77
2021/09/10 08:31:13;;;;;;;11.40;10.40;;;25.40;99.90;;;;;;4917304;29;20278;-78
2021/09/10 08:33:42;;;;;;;7.03;6.33;;;25.40;99.90;;;;;;4909686;29;20203;-77
2021/09/10 08:36:09;;;;;;;10.57;7.20;;;25.50;99.90;;;;;;4910698;29;20251;-78
2021/09/10 08:38:35;;;;;;;10.80;9.87;;;25.50;99.90;;;;;;4929364;29;20228;-78
2021/09/10 08:41:04;;;;;;;13.40;12.43;;;25.30;99.90;;;;;;4926644;29;20204;-77
2021/09/10 08:43:32;;;;;;;7.60;6.57;;;25.10;99.90;;;;;;4929469;29;20203;-77
2021/09/10 08:46:00;;;;;;;7.13;6.33;;;25.20;99.90;;;;;;4909315;29;20234;-77
2021/09/10 08:48:28;;;;;;;6.60;6.00;;;25.30;99.90;;;;;;4907101;29;20764;-77
2021/09/10 08:50:57;;;;;;;8.63;6.67;;;25.50;99.90;;;;;;4928788;29;20203;-78
2021/09/10 08:53:24;;;;;;;6.53;5.93;;;25.90;99.90;;;;;;4909754;29;20196;-77
2021/09/10 08:55:51;;;;;;;7.20;5.47;;;26.50;99.90;;;;;;4919252;29;20199;-78
2021/09/10 08:58:18;;;;;;;8.57;7.87;;;26.90;99.90;;;;;;4926979;29;20264;-77
2021/09/10 09:00:46;;;;;;;11.80;10.93;;;26.80;99.90;;;;;;4930696;29;20910;-77
2021/09/10 09:03:14;;;;;;;10.00;9.30;;;26.90;99.90;;;;;;4928327;29;20211;-78
2021/09/10 09:05:41;;;;;;;11.60;10.70;;;27.30;99.90;;;;;;4911515;29;20234;-78
2021/09/10 09:08:12;;;;;;;12.90;12.00;;;27.70;99.90;;;;;;4919788;29;20223;-77
2021/09/10 09:10:53;;;;;;;7.40;5.77;;;27.90;99.90;;;;;;4911640;29;20255;-77
2021/09/10 09:13:20;;;;;;;11.97;11.17;;;28.40;99.90;;;;;;4911014;29;20226;-78
2021/09/10 09:15:47;;;;;;;10.40;9.60;;;28.70;99.90;;;;;;4928642;29;20200;-78
2021/09/10 09:18:14;;;;;;;9.67;8.97;;;28.40;99.90;;;;;;4926377;29;20280;-77
2021/09/10 09:20:47;;;;;;;10.10;9.17;;;28.10;99.90;;;;;;4932720;29;20203;-78
2021/09/10 09:23:16;;;;;;;9.90;9.03;;;27.80;99.90;;;;;;4920107;29;20251;-78
2021/09/10 09:25:45;;;;;;;9.57;8.77;;;27.50;99.90;;;;;;4933109;29;20223;-77
2021/09/10 09:28:20;;;;;;;9.90;9.10;;;27.80;99.90;;;;;;4934837;29;20220;-77
2021/09/10 09:30:49;;;;;;;9.93;9.13;;;28.00;99.90;;;;;;4916102;29;20199;-77
2021/09/10 09:33:17;;;;;;;9.60;8.90;;;28.50;99.90;;;;;;4912820;29;20216;-78
2021/09/10 09:35:45;;;;;;;10.27;9.47;;;28.90;99.90;;;;;;4933176;29;20667;-77
2021/09/10 09:38:15;;;;;;;9.97;9.10;;;29.00;99.90;;;;;;4932237;29;20763;-77
2021/09/10 09:40:44;;;;;;;10.37;9.57;;;28.90;99.90;;;;;;4928226;29;20729;-78
2021/09/10 09:43:17;;;;;;;10.17;9.37;;;29.00;99.90;;;;;;4928539;29;20541;-77
2021/09/10 09:45:46;;;;;;;10.60;9.70;;;28.90;99.90;;;;;;4914334;29;20248;-77
2021/09/10 09:48:14;;;;;;;10.07;9.37;;;28.80;99.90;;;;;;4930525;29;20227;-77
2021/09/10 09:50:43;;;;;;;10.50;9.57;;;29.10;99.90;;;;;;4913348;29;20207;-77
2021/09/10 09:53:12;;;;;;;10.90;10.10;;;28.80;99.90;;;;;;4928800;29;20228;-77
2021/09/10 09:55:39;;;;;;;11.70;10.90;;;28.60;99.90;;;;;;4915542;29;20215;-78
2021/09/10 09:58:08;;;;;;;12.37;11.47;;;28.70;99.90;;;;;;4914393;29;20243;-77
2021/09/10 10:00:38;;;;;;;12.60;11.70;;;28.80;99.90;;;;;;4925659;29;20220;-77
2021/09/10 10:03:06;;;;;;;11.70;10.80;;;28.50;99.90;;;;;;4929383;29;20207;-77
2021/09/10 10:05:41;;;;;;;12.03;11.13;;;28.50;99.90;;;;;;4913609;29;20590;-78
2021/09/10 10:08:11;;;;;;;11.83;11.03;;;28.60;99.90;;;;;;4912822;29;20684;-77
2021/09/10 10:10:42;;;;;;;12.67;11.67;;;28.60;99.90;;;;;;4930048;29;20207;-77
2021/09/10 10:13:14;;;;;;;12.50;11.50;;;28.40;99.90;;;;;;4915860;29;20255;-77
2021/09/10 10:15:45;;;;;;;12.60;11.50;;;28.40;99.90;;;;;;4929849;29;20224;-77
2021/09/10 10:18:12;;;;;;;12.17;11.30;;;28.50;99.90;;;;;;4929054;29;20287;-77
2021/09/10 10:20:51;;;;;;;12.37;11.20;;;28.60;99.90;;;;;;4932154;29;20205;-77
2021/09/10 10:23:55;;;;;;;11.93;11.03;;;28.40;99.90;;;;;;4913799;29;20646;-77
2021/09/10 10:26:42;;;;;;;11.50;10.60;;;28.00;99.90;;;;;;4927082;29;20722;-77
2021/09/10 10:29:19;;;;;;;10.87;10.07;;;28.00;99.90;;;;;;4921201;29;20361;-77
2021/09/10 10:32:07;;;;;;;11.90;10.90;;;28.00;99.90;;;;;;4924491;29;20258;-77
2021/09/10 10:34:36;;;;;;;11.30;10.47;;;28.00;99.90;;;;;;4907581;29;20204;-77
2021/09/10 10:37:26;;;;;;;11.50;10.60;;;27.80;99.90;;;;;;4915233;29;20574;-77
2021/09/10 10:40:24;;;;;;;11.33;10.50;;;27.50;99.90;;;;;;4920787;29;20579;-77
2021/09/10 10:42:52;;;;;;;11.10;10.23;;;26.90;99.90;;;;;;4918820;29;20275;-76
2021/09/10 10:46:00;;;;;;;11.77;10.87;;;26.80;99.90;;;;;;4926662;29;20254;-77
2021/09/10 10:48:51;;;;;;;12.00;11.17;;;26.80;99.90;;;;;;4925145;29;20235;-78
2021/09/10 10:51:51;;;;;;;12.77;11.67;;;26.80;99.90;;;;;;4908941;29;20208;-77
2021/09/10 10:54:19;;;;;;;12.00;11.10;;;26.70;99.90;;;;;;4922518;29;20207;-77
2021/09/10 10:56:47;;;;;;;11.90;10.93;;;26.50;99.90;;;;;;4926574;29;20198;-77
2021/09/10 10:59:30;;;;;;;13.43;12.43;;;26.30;99.90;;;;;;4909088;29;20292;-78
2021/09/10 11:02:37;;;;;;;12.83;11.93;;;26.10;99.90;;;;;;4902652;29;20207;-77
2021/09/10 11:05:12;;;;;;;12.53;11.63;;;26.00;99.90;;;;;;4920009;29;20707;-77
2021/09/10 11:07:39;;;;;;;11.83;11.03;;;25.90;99.90;;;;;;4927910;29;20789;-77
2021/09/10 11:10:08;;;;;;;10.77;9.97;;;25.90;99.90;;;;;;4906605;29;20213;-77
2021/09/10 11:12:36;;;;;;;11.83;10.93;;;25.90;99.90;;;;;;4925385;29;20203;-77
2021/09/10 11:15:15;;;;;;;12.10;11.13;;;26.00;99.90;;;;;;4924818;29;20196;-77
2021/09/10 11:17:43;;;;;;;8.10;7.30;;;26.30;99.90;;;;;;4922293;29;20237;-77
2021/09/10 11:20:12;;;;;;;8.43;7.63;;;26.50;99.90;;;;;;4906936;29;20204;-78
2021/09/10 11:22:47;;;;;;;9.53;8.83;;;26.60;99.90;;;;;;4925987;29;20203;-77
2021/09/10 11:25:14;;;;;;;10.60;9.70;;;26.60;99.90;;;;;;4925909;29;20252;-77
2021/09/10 11:27:41;;;;;;;12.03;11.13;;;26.80;99.90;;;;;;4911273;29;20235;-77
2021/09/10 11:30:11;;;;;;;11.37;10.57;;;26.80;99.90;;;;;;4926189;29;20645;-77
2021/09/10 11:32:38;;;;;;;9.63;8.67;;;26.70;99.90;;;;;;4913212;29;20214;-77
2021/09/10 11:35:18;;;;;;;9.00;8.30;;;26.50;99.90;;;;;;4925061;29;20243;-77
2021/09/10 11:37:53;;;;;;;8.83;8.13;;;26.60;99.90;;;;;;4904970;29;20234;-77
2021/09/10 11:40:29;;;;;;;12.20;11.40;;;26.50;99.90;;;;;;4905581;29;20654;-77
2021/09/10 11:43:02;;;;;;;11.80;10.90;;;26.60;99.90;;;;;;4902736;29;20283;-77
2021/09/10 11:45:31;;;;;;;12.23;11.27;;;26.50;99.90;;;;;;4925121;29;20275;-77
2021/09/10 11:48:03;;;;;;;11.20;10.20;;;26.40;99.90;;;;;;4927251;29;20324;-77
2021/09/10 11:50:47;;;;;;;9.40;8.50;;;26.30;99.90;;;;;;4909389;29;20204;-77
2021/09/10 11:53:15;;;;;;;10.73;9.93;;;26.40;99.90;;;;;;4904338;29;20212;-78
2021/09/10 11:55:52;;;;;;;10.87;9.97;;;26.40;99.90;;;;;;4911051;29;20195;-77
2021/09/10 11:58:19;;;;;;;8.63;7.73;;;26.50;99.90;;;;;;4958845;23;20325;-83
2021/09/10 12:00:47;;;;;;;9.90;7.50;;;26.40;99.90;;;;;;4946454;28;20198;-82
2021/09/10 12:03:14;;;;;;;7.17;5.80;;;26.50;99.90;;;;;;4953362;29;20628;-82
2021/09/10 12:05:43;;;;;;;9.50;5.50;;;26.50;99.90;;;;;;4953536;28;20305;-83
2021/09/10 12:08:14;;;;;;;6.80;6.13;;;26.50;99.90;;;;;;4946130;28;20235;-82
2021/09/10 12:10:41;;;;;;;6.50;5.90;;;26.60;99.90;;;;;;4945342;29;20293;-82
2021/09/10 12:13:11;;;;;;;7.10;6.13;;;26.70;99.90;;;;;;4942844;29;20206;-82
2021/09/10 12:15:40;;;;;;;9.40;7.03;;;26.70;99.90;;;;;;4940630;29;20188;-82
2021/09/10 12:18:10;;;;;;;7.30;6.60;;;26.80;99.90;;;;;;4940446;29;20227;-82
2021/09/10 12:20:39;;;;;;;6.27;5.67;;;26.80;99.90;;;;;;4944134;29;20191;-83
2021/09/10 12:23:06;;;;;;;6.57;5.93;;;26.90;99.90;;;;;;4942787;29;20195;-82
2021/09/10 12:25:37;;;;;;;5.93;5.33;;;27.10;99.90;;;;;;4942455;29;20289;-82
2021/09/10 12:28:19;;;;;;;8.63;7.73;;;27.10;99.90;;;;;;4942381;28;20226;-82
2021/09/10 12:30:50;;;;;;;7.03;5.63;;;27.10;99.90;;;;;;4945062;29;20234;-82
2021/09/10 12:33:18;;;;;;;6.93;6.23;;;27.00;99.90;;;;;;4944333;29;20569;-82
2021/09/10 12:35:48;;;;;;;6.30;5.53;;;27.00;99.90;;;;;;4939604;29;20191;-82
2021/09/10 12:38:21;;;;;;;11.07;10.20;;;26.80;99.90;;;;;;4939754;29;20266;-82
2021/09/10 12:40:52;;;;;;;8.67;8.00;;;26.80;99.90;;;;;;4947029;29;20191;-82
2021/09/10 12:43:20;;;;;;;12.53;11.63;;;26.70;99.90;;;;;;4944650;29;20207;-82
2021/09/10 12:45:49;;;;;;;10.70;9.90;;;26.60;99.90;;;;;;4948538;28;20630;-82
2021/09/10 12:48:17;;;;;;;11.30;10.50;;;26.60;99.90;;;;;;4948670;28;20222;-82